sensor_id;sensor_type;location;lat;lon;timestamp;pressure;altitude;pressure_sealevel;temperature;humidity
21960;BME280;11144;43.030;25.108;2022-12-10T00:01:24;98589.69;;;5.48;100.00
21960;BME280;11144;43.030;25.108;2022-12-10T00:02:58;98594.88;;;5.49;100.00
21960;BME280;11144;43.030;25.108;2022-12-10T00:04:31;98593.00;;;5.54;100.00
21960;BME280;11144;43.030;25.108;2022-12-10T00:06:07;98589.56;;;5.52;100.00
21960;BME280;11144;43.030;25.108;2022-12-10T00:07:40;98589.50;;;5.55;100.00
21960;BME280;11144;43.030;25.108;2022-12-10T00:09:16;98575.72;;;5.47;100.00
21960;BME280;11144;43.030;25.108;2022-12-10T00:10:50;98596.44;;;5.56;100.00
21960;BME280;11144;43.030;25.108;2022-12-10T00:12:22;98596.38;;;5.59;100.00
21960;BME280;11144;43.030;25.108;2022-12-10T00:13:57;98597.19;;;5.60;100.00
21960;BME280;11144;43.030;25.108;2022-12-10T00:15:30;98592.84;;;5.60;100.00
21960;BME280;11144;43.030;25.108;2022-12-10T00:17:04;98582.25;;;5.63;100.00
21960;BME280;11144;43.030;25.108;2022-12-10T00:18:44;98589.22;;;5.64;100.00
21960;BME280;11144;43.030;25.108;2022-12-10T00:20:18;98578.81;;;5.61;100.00
21960;BME280;11144;43.030;25.108;2022-12-10T00:21:51;98585.69;;;5.65;100.00
21960;BME280;11144;43.030;25.108;2022-12-10T00:23:24;98593.38;;;5.71;100.00
21960;BME280;11144;43.030;25.108;2022-12-10T00:24:57;98587.22;;;5.72;100.00
21960;BME280;11144;43.030;25.108;2022-12-10T00:26:33;98585.44;;;5.74;100.00
21960;BME280;11144;43.030;25.108;2022-12-10T00:28:07;98585.28;;;5.79;100.00
21960;BME280;11144;43.030;25.108;2022-12-10T00:29:40;98585.34;;;5.77;100.00
21960;BME280;11144;43.030;25.108;2022-12-10T00:31:14;98586.19;;;5.78;100.00
21960;BME280;11144;43.030;25.108;2022-12-10T00:32:50;98579.25;;;5.77;100.00
21960;BME280;11144;43.030;25.108;2022-12-10T00:34:23;98581.91;;;5.75;100.00
21960;BME280;11144;43.030;25.108;2022-12-10T00:36:01;98573.31;;;5.70;100.00
21960;BME280;11144;43.030;25.108;2022-12-10T00:37:34;98576.81;;;5.69;100.00
21960;BME280;11144;43.030;25.108;2022-12-10T00:39:09;98574.41;;;5.63;100.00
21960;BME280;11144;43.030;25.108;2022-12-10T00:40:44;98581.41;;;5.63;100.00
21960;BME280;11144;43.030;25.108;2022-12-10T00:42:16;98591.00;;;5.62;100.00
21960;BME280;11144;43.030;25.108;2022-12-10T00:43:50;98579.03;;;5.54;100.00
21960;BME280;11144;43.030;25.108;2022-12-10T00:45:22;98579.72;;;5.60;100.00
21960;BME280;11144;43.030;25.108;2022-12-10T00:46:56;98573.66;;;5.58;100.00
21960;BME280;11144;43.030;25.108;2022-12-10T00:48:32;98580.69;;;5.58;100.00
21960;BME280;11144;43.030;25.108;2022-12-10T00:50:05;98571.91;;;5.59;100.00
21960;BME280;11144;43.030;25.108;2022-12-10T00:51:39;98574.41;;;5.63;100.00
21960;BME280;11144;43.030;25.108;2022-12-10T00:53:15;98573.41;;;5.67;100.00
21960;BME280;11144;43.030;25.108;2022-12-10T00:54:48;98586.47;;;5.69;100.00
21960;BME280;11144;43.030;25.108;2022-12-10T00:56:22;98588.94;;;5.73;100.00
21960;BME280;11144;43.030;25.108;2022-12-10T00:57:56;98587.91;;;5.79;100.00
21960;BME280;11144;43.030;25.108;2022-12-10T00:59:29;98583.53;;;5.79;100.00
21960;BME280;11144;43.030;25.108;2022-12-10T01:01:11;98587.88;;;5.80;100.00
21960;BME280;11144;43.030;25.108;2022-12-10T01:02:44;98583.47;;;5.82;100.00
21960;BME280;11144;43.030;25.108;2022-12-10T01:04:19;98582.63;;;5.82;100.00
21960;BME280;11144;43.030;25.108;2022-12-10T01:05:55;98580.00;;;5.80;100.00
21960;BME280;11144;43.030;25.108;2022-12-10T01:07:27;98577.41;;;5.79;100.00
21960;BME280;11144;43.030;25.108;2022-12-10T01:09:03;98580.91;;;5.79;100.00
21960;BME280;11144;43.030;25.108;2022-12-10T01:10:37;98554.22;;;5.65;100.00
21960;BME280;11144;43.030;25.108;2022-12-10T01:12:11;98567.97;;;5.73;100.00
21960;BME280;11144;43.030;25.108;2022-12-10T01:13:46;98575.66;;;5.79;100.00
21960;BME280;11144;43.030;25.108;2022-12-10T01:15:19;98566.03;;;5.81;100.00
21960;BME280;11144;43.030;25.108;2022-12-10T01:16:54;98572.94;;;5.84;100.00
21960;BME280;11144;43.030;25.108;2022-12-10T01:18:28;98564.22;;;5.83;100.00
21960;BME280;11144;43.030;25.108;2022-12-10T01:20:01;98566.03;;;5.81;100.00
21960;BME280;11144;43.030;25.108;2022-12-10T01:21:35;98567.78;;;5.79;100.00
21960;BME280;11144;43.030;25.108;2022-12-10T01:23:10;98567.13;;;5.73;100.00
21960;BME280;11144;43.030;25.108;2022-12-10T01:24:44;98579.69;;;5.62;100.00
21960;BME280;11144;43.030;25.108;2022-12-10T01:26:19;98573.84;;;5.52;100.00
21960;BME280;11144;43.030;25.108;2022-12-10T01:27:52;98573.75;;;5.55;100.00
21960;BME280;11144;43.030;25.108;2022-12-10T01:29:28;98573.66;;;5.58;100.00
21960;BME280;11144;43.030;25.108;2022-12-10T01:31:03;98561.44;;;5.57;100.00
21960;BME280;11144;43.030;25.108;2022-12-10T01:32:36;98571.78;;;5.63;100.00
21960;BME280;11144;43.030;25.108;2022-12-10T01:34:12;98573.50;;;5.64;100.00
21960;BME280;11144;43.030;25.108;2022-12-10T01:35:48;98580.44;;;5.65;100.00
21960;BME280;11144;43.030;25.108;2022-12-10T01:37:21;98569.13;;;5.65;100.00
21960;BME280;11144;43.030;25.108;2022-12-10T01:38:55;98549.25;;;5.56;100.00
21960;BME280;11144;43.030;25.108;2022-12-10T01:40:28;98555.97;;;5.66;100.00
21960;BME280;11144;43.030;25.108;2022-12-10T01:42:03;98553.28;;;5.68;100.00
21960;BME280;11144;43.030;25.108;2022-12-10T01:43:56;98539.44;;;5.63;100.00
21960;BME280;11144;43.030;25.108;2022-12-10T01:45:29;98540.41;;;5.60;100.00
21960;BME280;11144;43.030;25.108;2022-12-10T01:47:03;98545.72;;;5.57;100.00
21960;BME280;11144;43.030;25.108;2022-12-10T01:48:36;98537.47;;;5.40;100.00
21960;BME280;11144;43.030;25.108;2022-12-10T01:50:10;98540.84;;;5.45;100.00
21960;BME280;11144;43.030;25.108;2022-12-10T01:51:46;98530.56;;;5.38;100.00
21960;BME280;11144;43.030;25.108;2022-12-10T01:53:20;98537.66;;;5.34;100.00
21960;BME280;11144;43.030;25.108;2022-12-10T01:54:53;98541.91;;;5.38;100.00
21960;BME280;11144;43.030;25.108;2022-12-10T01:56:26;98544.38;;;5.44;100.00
21960;BME280;11144;43.030;25.108;2022-12-10T01:58:00;98547.88;;;5.43;100.00
21960;BME280;11144;43.030;25.108;2022-12-10T01:59:34;98544.69;;;5.32;100.00
21960;BME280;11144;43.030;25.108;2022-12-10T02:01:11;98547.22;;;5.35;100.00
21960;BME280;11144;43.030;25.108;2022-12-10T02:02:54;98542.91;;;5.34;100.00
21960;BME280;11144;43.030;25.108;2022-12-10T02:04:34;98549.78;;;5.38;100.00
21960;BME280;11144;43.030;25.108;2022-12-10T02:06:23;98553.19;;;5.40;100.00
21960;BME280;11144;43.030;25.108;2022-12-10T02:08:10;98554.09;;;5.39;100.00
21960;BME280;11144;43.030;25.108;2022-12-10T02:09:50;98545.28;;;5.42;100.00
21960;BME280;11144;43.030;25.108;2022-12-10T02:11:29;98553.88;;;5.48;100.00
21960;BME280;11144;43.030;25.108;2022-12-10T02:13:07;98547.63;;;5.52;100.00
21960;BME280;11144;43.030;25.108;2022-12-10T02:14:51;98560.50;;;5.60;100.00
21960;BME280;11144;43.030;25.108;2022-12-10T02:16:31;98550.72;;;5.66;100.00
21960;BME280;11144;43.030;25.108;2022-12-10T02:18:09;98551.53;;;5.68;100.00
21960;BME280;11144;43.030;25.108;2022-12-10T02:19:56;98548.91;;;5.68;100.00
21960;BME280;11144;43.030;25.108;2022-12-10T02:21:35;98541.94;;;5.67;100.00
21960;BME280;11144;43.030;25.108;2022-12-10T02:23:14;98547.97;;;5.69;100.00
21960;BME280;11144;43.030;25.108;2022-12-10T02:24:51;98553.09;;;5.74;100.00
21960;BME280;11144;43.030;25.108;2022-12-10T02:26:30;98550.44;;;5.75;100.00
21960;BME280;11144;43.030;25.108;2022-12-10T02:28:12;98555.56;;;5.81;100.00
21960;BME280;11144;43.030;25.108;2022-12-10T02:29:48;98543.16;;;5.86;100.00
21960;BME280;11144;43.030;25.108;2022-12-10T02:31:26;98543.84;;;5.91;100.00
21960;BME280;11144;43.030;25.108;2022-12-10T02:33:05;98543.84;;;5.91;100.00
21960;BME280;11144;43.030;25.108;2022-12-10T02:34:42;98529.75;;;5.95;100.00
21960;BME280;11144;43.030;25.108;2022-12-10T02:36:17;98541.06;;;5.97;100.00
21960;BME280;11144;43.030;25.108;2022-12-10T02:37:56;98539.22;;;5.99;100.00
21960;BME280;11144;43.030;25.108;2022-12-10T02:39:34;98539.19;;;6.01;100.00
21960;BME280;11144;43.030;25.108;2022-12-10T02:41:14;98540.19;;;5.97;100.00
21960;BME280;11144;43.030;25.108;2022-12-10T02:42:50;98536.00;;;5.91;100.00
21960;BME280;11144;43.030;25.108;2022-12-10T02:44:27;98530.81;;;5.88;100.00
21960;BME280;11144;43.030;25.108;2022-12-10T02:46:05;98528.94;;;5.93;100.00
21960;BME280;11144;43.030;25.108;2022-12-10T02:47:41;98532.38;;;5.95;100.00
21960;BME280;11144;43.030;25.108;2022-12-10T02:49:19;98527.84;;;6.00;100.00
21960;BME280;11144;43.030;25.108;2022-12-10T02:50:53;98533.03;;;6.03;100.00
21960;BME280;11144;43.030;25.108;2022-12-10T02:52:27;98523.88;;;5.87;100.00
21960;BME280;11144;43.030;25.108;2022-12-10T02:54:03;98540.22;;;5.95;100.00
21960;BME280;11144;43.030;25.108;2022-12-10T02:56:00;98527.03;;;5.98;100.00
21960;BME280;11144;43.030;25.108;2022-12-10T02:57:56;98525.94;;;6.05;100.00
21960;BME280;11144;43.030;25.108;2022-12-10T02:59:43;98528.59;;;6.04;100.00
21960;BME280;11144;43.030;25.108;2022-12-10T03:01:29;98525.16;;;6.03;100.00
21960;BME280;11144;43.030;25.108;2022-12-10T03:03:25;98525.94;;;6.05;100.00
21960;BME280;11144;43.030;25.108;2022-12-10T03:05:05;98525.84;;;6.08;100.00
21960;BME280;11144;43.030;25.108;2022-12-10T03:06:46;98526.56;;;6.13;100.00
21960;BME280;11144;43.030;25.108;2022-12-10T03:08:26;98530.00;;;6.15;100.00
21960;BME280;11144;43.030;25.108;2022-12-10T03:10:06;98520.44;;;6.14;100.00
21960;BME280;11144;43.030;25.108;2022-12-10T03:11:46;98511.53;;;6.18;100.00
21960;BME280;11144;43.030;25.108;2022-12-10T03:13:29;98497.41;;;6.22;100.00
21960;BME280;11144;43.030;25.108;2022-12-10T03:15:06;98503.38;;;6.27;100.00
21960;BME280;11144;43.030;25.108;2022-12-10T03:16:46;98505.19;;;6.25;100.00
21960;BME280;11144;43.030;25.108;2022-12-10T03:18:23;98502.50;;;6.27;100.00
21960;BME280;11144;43.030;25.108;2022-12-10T03:19:58;98506.91;;;6.26;100.00
21960;BME280;11144;43.030;25.108;2022-12-10T03:21:34;98504.28;;;6.26;100.00
21960;BME280;11144;43.030;25.108;2022-12-10T03:23:16;98502.41;;;6.30;100.00
21960;BME280;11144;43.030;25.108;2022-12-10T03:24:52;98509.31;;;6.32;100.00
21960;BME280;11144;43.030;25.108;2022-12-10T03:26:27;98501.44;;;6.32;100.00
21960;BME280;11144;43.030;25.108;2022-12-10T03:28:00;98503.19;;;6.33;100.00
21960;BME280;11144;43.030;25.108;2022-12-10T03:29:35;98510.22;;;6.31;100.00
21960;BME280;11144;43.030;25.108;2022-12-10T03:31:12;98510.31;;;6.28;100.00
21960;BME280;11144;43.030;25.108;2022-12-10T03:32:47;98511.06;;;6.33;100.00
21960;BME280;11144;43.030;25.108;2022-12-10T03:34:22;98500.56;;;6.33;100.00
21960;BME280;11144;43.030;25.108;2022-12-10T03:35:56;98511.94;;;6.32;100.00
21960;BME280;11144;43.030;25.108;2022-12-10T03:37:29;98508.53;;;6.30;100.00
21960;BME280;11144;43.030;25.108;2022-12-10T03:39:02;98510.31;;;6.28;100.00
21960;BME280;11144;43.030;25.108;2022-12-10T03:40:37;98508.53;;;6.30;100.00
21960;BME280;11144;43.030;25.108;2022-12-10T03:42:09;98500.03;;;6.22;100.00
21960;BME280;11144;43.030;25.108;2022-12-10T03:43:53;98508.53;;;6.30;100.00
21960;BME280;11144;43.030;25.108;2022-12-10T03:45:26;98505.91;;;6.30;100.00
21960;BME280;11144;43.030;25.108;2022-12-10T03:47:01;98511.06;;;6.33;100.00
21960;BME280;11144;43.030;25.108;2022-12-10T03:48:36;98504.06;;;6.32;100.00
21960;BME280;11144;43.030;25.108;2022-12-10T03:50:10;98511.94;;;6.32;100.00
21960;BME280;11144;43.030;25.108;2022-12-10T03:51:45;98503.28;;;6.30;100.00
21960;BME280;11144;43.030;25.108;2022-12-10T03:53:17;98494.47;;;6.31;100.00
21960;BME280;11144;43.030;25.108;2022-12-10T03:54:52;98487.53;;;6.30;100.00
21960;BME280;11144;43.030;25.108;2022-12-10T03:56:26;98490.25;;;6.27;100.00
21960;BME280;11144;43.030;25.108;2022-12-10T03:57:59;98479.13;;;6.19;100.00
21960;BME280;11144;43.030;25.108;2022-12-10T03:59:33;98492.13;;;6.24;100.00
21960;BME280;11144;43.030;25.108;2022-12-10T04:01:06;98492.00;;;6.27;100.00
21960;BME280;11144;43.030;25.108;2022-12-10T04:02:40;98489.25;;;6.31;100.00
21960;BME280;11144;43.030;25.108;2022-12-10T04:04:16;98492.78;;;6.30;100.00
21960;BME280;11144;43.030;25.108;2022-12-10T04:05:50;98490.19;;;6.29;100.00
21960;BME280;11144;43.030;25.108;2022-12-10T04:07:24;98485.81;;;6.29;100.00
21960;BME280;11144;43.030;25.108;2022-12-10T04:08:56;98494.56;;;6.28;100.00
21960;BME280;11144;43.030;25.108;2022-12-10T04:10:35;98500.69;;;6.29;100.00
21960;BME280;11144;43.030;25.108;2022-12-10T04:12:09;98501.53;;;6.31;100.00
21960;BME280;11144;43.030;25.108;2022-12-10T04:13:44;98510.19;;;6.33;100.00
21960;BME280;11144;43.030;25.108;2022-12-10T04:15:38;98506.78;;;6.31;100.00
21960;BME280;11144;43.030;25.108;2022-12-10T04:17:31;98506.59;;;6.35;100.00
21960;BME280;11144;43.030;25.108;2022-12-10T04:19:06;98505.53;;;6.41;100.00
21960;BME280;11144;43.030;25.108;2022-12-10T04:20:42;98497.53;;;6.45;100.00
21960;BME280;11144;43.030;25.108;2022-12-10T04:22:33;98504.47;;;6.46;100.00
21960;BME280;11144;43.030;25.108;2022-12-10T04:24:25;98514.97;;;6.46;100.00
21960;BME280;11144;43.030;25.108;2022-12-10T04:26:16;98513.38;;;6.42;100.00
21960;BME280;11144;43.030;25.108;2022-12-10T04:28:07;98518.63;;;6.42;100.00
21960;BME280;11144;43.030;25.108;2022-12-10T04:29:40;98518.63;;;6.42;100.00
21960;BME280;11144;43.030;25.108;2022-12-10T04:31:13;98506.41;;;6.41;100.00
21960;BME280;11144;43.030;25.108;2022-12-10T04:32:46;98505.53;;;6.41;100.00
21960;BME280;11144;43.030;25.108;2022-12-10T04:34:20;98499.41;;;6.42;100.00
21960;BME280;11144;43.030;25.108;2022-12-10T04:35:54;98487.34;;;6.36;100.00
21960;BME280;11144;43.030;25.108;2022-12-10T04:37:29;98496.19;;;6.32;100.00
21960;BME280;11144;43.030;25.108;2022-12-10T04:39:01;98490.16;;;6.30;100.00
21960;BME280;11144;43.030;25.108;2022-12-10T04:40:35;98488.44;;;6.29;100.00
21960;BME280;11144;43.030;25.108;2022-12-10T04:42:08;98475.50;;;6.23;100.00
21960;BME280;11144;43.030;25.108;2022-12-10T04:43:42;98477.53;;;6.15;100.00
21960;BME280;11144;43.030;25.108;2022-12-10T04:45:15;98463.03;;;6.04;100.00
21960;BME280;11144;43.030;25.108;2022-12-10T04:46:48;98484.56;;;6.13;100.00
21960;BME280;11144;43.030;25.108;2022-12-10T04:48:22;98487.38;;;6.09;100.00
21960;BME280;11144;43.030;25.108;2022-12-10T04:49:56;98488.13;;;6.12;100.00
21960;BME280;11144;43.030;25.108;2022-12-10T04:51:31;98495.84;;;6.17;100.00
21960;BME280;11144;43.030;25.108;2022-12-10T04:53:04;98489.63;;;6.19;100.00
21960;BME280;11144;43.030;25.108;2022-12-10T04:54:37;98492.16;;;6.22;100.00
21960;BME280;11144;43.030;25.108;2022-12-10T04:56:11;98494.03;;;6.19;100.00
21960;BME280;11144;43.030;25.108;2022-12-10T04:57:45;98494.03;;;6.19;100.00
21960;BME280;11144;43.030;25.108;2022-12-10T04:59:19;98496.59;;;6.20;100.00
21960;BME280;11144;43.030;25.108;2022-12-10T05:00:53;98500.03;;;6.22;100.00
21960;BME280;11144;43.030;25.108;2022-12-10T05:02:26;98489.63;;;6.19;100.00
21960;BME280;11144;43.030;25.108;2022-12-10T05:04:02;98492.16;;;6.22;100.00
21960;BME280;11144;43.030;25.108;2022-12-10T05:05:37;98491.06;;;6.29;100.00
21960;BME280;11144;43.030;25.108;2022-12-10T05:07:12;98498.03;;;6.30;100.00
21960;BME280;11144;43.030;25.108;2022-12-10T05:08:46;98492.78;;;6.30;100.00
21960;BME280;11144;43.030;25.108;2022-12-10T05:10:18;98498.03;;;6.30;100.00
21960;BME280;11144;43.030;25.108;2022-12-10T05:11:51;98484.28;;;6.22;100.00
21960;BME280;11144;43.030;25.108;2022-12-10T05:13:25;98501.56;;;6.29;100.00
21960;BME280;11144;43.030;25.108;2022-12-10T05:14:57;98502.34;;;6.31;100.00
21960;BME280;11144;43.030;25.108;2022-12-10T05:16:32;98505.06;;;6.28;100.00
21960;BME280;11144;43.030;25.108;2022-12-10T05:18:05;98486.09;;;6.20;100.00
21960;BME280;11144;43.030;25.108;2022-12-10T05:19:38;98491.84;;;6.31;100.00
21960;BME280;11144;43.030;25.108;2022-12-10T05:21:12;98504.16;;;6.31;100.00
21960;BME280;11144;43.030;25.108;2022-12-10T05:22:48;98508.53;;;6.30;100.00
21960;BME280;11144;43.030;25.108;2022-12-10T05:24:38;98498.03;;;6.30;100.00
21960;BME280;11144;43.030;25.108;2022-12-10T05:26:13;98502.31;;;6.33;100.00
21960;BME280;11144;43.030;25.108;2022-12-10T05:27:47;98509.22;;;6.35;100.00
21960;BME280;11144;43.030;25.108;2022-12-10T05:29:20;98509.03;;;6.41;100.00
21960;BME280;11144;43.030;25.108;2022-12-10T05:30:55;98511.56;;;6.44;100.00
21960;BME280;11144;43.030;25.108;2022-12-10T05:32:28;98508.03;;;6.45;100.00
21960;BME280;11144;43.030;25.108;2022-12-10T05:34:02;98507.16;;;6.45;100.00
21960;BME280;11144;43.030;25.108;2022-12-10T05:35:36;98508.84;;;6.47;100.00
21960;BME280;11144;43.030;25.108;2022-12-10T05:37:09;98515.72;;;6.51;100.00
21960;BME280;11144;43.030;25.108;2022-12-10T05:38:45;98519.09;;;6.55;100.00
21960;BME280;11144;43.030;25.108;2022-12-10T05:40:19;98518.13;;;6.57;100.00
21960;BME280;11144;43.030;25.108;2022-12-10T05:41:52;98517.16;;;6.60;100.00
21960;BME280;11144;43.030;25.108;2022-12-10T05:43:25;98519.72;;;6.61;100.00
21960;BME280;11144;43.030;25.108;2022-12-10T05:44:58;98513.69;;;6.59;100.00
21960;BME280;11144;43.030;25.108;2022-12-10T05:46:33;98505.59;;;6.65;100.00
21960;BME280;11144;43.030;25.108;2022-12-10T05:48:08;98510.75;;;6.68;100.00
21960;BME280;11144;43.030;25.108;2022-12-10T05:49:43;98508.94;;;6.70;100.00
21960;BME280;11144;43.030;25.108;2022-12-10T05:51:24;98514.09;;;6.73;100.00
21960;BME280;11144;43.030;25.108;2022-12-10T05:52:57;98506.22;;;6.73;100.00
21960;BME280;11144;43.030;25.108;2022-12-10T05:54:32;98503.59;;;6.73;100.00
21960;BME280;11144;43.030;25.108;2022-12-10T05:56:06;98494.53;;;6.56;100.00
21960;BME280;11144;43.030;25.108;2022-12-10T05:57:40;98505.72;;;6.62;100.00
21960;BME280;11144;43.030;25.108;2022-12-10T05:59:13;98513.50;;;6.64;100.00
21960;BME280;11144;43.030;25.108;2022-12-10T06:00:48;98515.16;;;6.68;100.00
21960;BME280;11144;43.030;25.108;2022-12-10T06:02:21;98524.00;;;6.64;100.00
21960;BME280;11144;43.030;25.108;2022-12-10T06:03:54;98515.16;;;6.68;100.00
21960;BME280;11144;43.030;25.108;2022-12-10T06:05:26;98511.47;;;6.73;100.00
21960;BME280;11144;43.030;25.108;2022-12-10T06:06:59;98507.91;;;6.74;100.00
21960;BME280;11144;43.030;25.108;2022-12-10T06:08:40;98482.09;;;6.62;100.00
21960;BME280;11144;43.030;25.108;2022-12-10T06:10:15;98501.94;;;6.69;100.00
21960;BME280;11144;43.030;25.108;2022-12-10T06:11:48;98499.44;;;6.66;100.00
21960;BME280;11144;43.030;25.108;2022-12-10T06:13:22;98492.63;;;6.61;100.00
21960;BME280;11144;43.030;25.108;2022-12-10T06:14:55;98499.59;;;6.62;100.00
21960;BME280;11144;43.030;25.108;2022-12-10T06:16:29;98496.91;;;6.63;100.00
21960;BME280;11144;43.030;25.108;2022-12-10T06:18:03;98502.06;;;6.66;100.00
21960;BME280;11144;43.030;25.108;2022-12-10T06:19:36;98499.50;;;6.65;100.00
21960;BME280;11144;43.030;25.108;2022-12-10T06:21:13;98505.38;;;6.71;100.00
21960;BME280;11144;43.030;25.108;2022-12-10T06:22:47;98502.72;;;6.73;100.00
21960;BME280;11144;43.030;25.108;2022-12-10T06:24:20;98506.09;;;6.76;100.00
21960;BME280;11144;43.030;25.108;2022-12-10T06:25:55;98493.09;;;6.73;100.00
21960;BME280;11144;43.030;25.108;2022-12-10T06:27:30;98510.22;;;6.83;100.00
21960;BME280;11144;43.030;25.108;2022-12-10T06:29:04;98517.09;;;6.87;100.00
21960;BME280;11144;43.030;25.108;2022-12-10T06:30:37;98502.94;;;6.91;100.00
21960;BME280;11144;43.030;25.108;2022-12-10T06:32:09;98502.81;;;6.94;100.00
21960;BME280;11144;43.030;25.108;2022-12-10T06:33:44;98505.25;;;7.00;100.00
21960;BME280;11144;43.030;25.108;2022-12-10T06:35:18;98499.91;;;7.03;100.00
21960;BME280;11144;43.030;25.108;2022-12-10T06:36:51;98509.38;;;7.07;100.00
21960;BME280;11144;43.030;25.108;2022-12-10T06:38:24;98511.16;;;7.07;100.00
21960;BME280;11144;43.030;25.108;2022-12-10T06:39:58;98496.16;;;7.11;100.00
21960;BME280;11144;43.030;25.108;2022-12-10T06:41:33;98503.84;;;7.15;100.00
21960;BME280;11144;43.030;25.108;2022-12-10T06:43:07;98501.09;;;7.18;100.00
21960;BME280;11144;43.030;25.108;2022-12-10T06:44:40;98496.72;;;7.19;100.00
21960;BME280;11144;43.030;25.108;2022-12-10T06:46:16;98500.13;;;7.21;100.00
21960;BME280;11144;43.030;25.108;2022-12-10T06:47:48;98494.78;;;7.24;100.00
21960;BME280;11144;43.030;25.108;2022-12-10T06:49:22;98506.84;;;7.29;100.00
21960;BME280;11144;43.030;25.108;2022-12-10T06:50:56;98511.31;;;7.27;100.00
21960;BME280;11144;43.030;25.108;2022-12-10T06:52:29;98506.78;;;7.31;100.00
21960;BME280;11144;43.030;25.108;2022-12-10T06:54:04;98515.34;;;7.36;100.00
21960;BME280;11144;43.030;25.108;2022-12-10T06:55:37;98507.38;;;7.39;100.00
21960;BME280;11144;43.030;25.108;2022-12-10T06:57:12;98508.06;;;7.44;100.00
21960;BME280;11144;43.030;25.108;2022-12-10T06:58:46;98500.00;;;7.48;100.00
21960;BME280;11144;43.030;25.108;2022-12-10T07:00:20;98492.75;;;7.55;100.00
21960;BME280;11144;43.030;25.108;2022-12-10T07:01:54;98488.06;;;7.63;100.00
21960;BME280;11144;43.030;25.108;2022-12-10T07:03:27;98467.03;;;7.63;100.00
21960;BME280;11144;43.030;25.108;2022-12-10T07:05:03;98489.19;;;7.79;100.00
21960;BME280;11144;43.030;25.108;2022-12-10T07:06:36;98491.72;;;7.82;100.00
21960;BME280;11144;43.030;25.108;2022-12-10T07:08:11;98492.50;;;7.84;100.00
21960;BME280;11144;43.030;25.108;2022-12-10T07:09:44;98492.16;;;7.93;100.00
21960;BME280;11144;43.030;25.108;2022-12-10T07:11:19;98497.41;;;7.93;100.00
21960;BME280;11144;43.030;25.108;2022-12-10T07:12:54;98487.31;;;8.04;100.00
21960;BME280;11144;43.030;25.108;2022-12-10T07:14:27;98484.00;;;8.22;100.00
21960;BME280;11144;43.030;25.108;2022-12-10T07:16:01;98489.31;;;8.42;100.00
21960;BME280;11144;43.030;25.108;2022-12-10T07:17:33;98492.25;;;8.76;100.00
21960;BME280;11144;43.030;25.108;2022-12-10T07:19:09;98494.50;;;9.05;100.00
21960;BME280;11144;43.030;25.108;2022-12-10T07:20:43;98497.28;;;9.22;100.00
21960;BME280;11144;43.030;25.108;2022-12-10T07:22:17;98497.88;;;9.28;100.00
21960;BME280;11144;43.030;25.108;2022-12-10T07:23:51;98502.13;;;9.31;100.00
21960;BME280;11144;43.030;25.108;2022-12-10T07:25:26;98512.56;;;9.34;100.00
21960;BME280;11144;43.030;25.108;2022-12-10T07:26:59;98505.72;;;9.30;100.00
21960;BME280;11144;43.030;25.108;2022-12-10T07:28:34;98506.78;;;9.26;100.00
21960;BME280;11144;43.030;25.108;2022-12-10T07:30:23;98496.66;;;9.17;100.00
21960;BME280;11144;43.030;25.108;2022-12-10T07:31:57;98498.34;;;9.18;100.00
21960;BME280;11144;43.030;25.108;2022-12-10T07:33:31;98500.56;;;9.27;100.00
21960;BME280;11144;43.030;25.108;2022-12-10T07:35:05;98496.81;;;9.32;100.00
21960;BME280;11144;43.030;25.108;2022-12-10T07:36:39;98493.47;;;9.29;100.00
21960;BME280;11144;43.030;25.108;2022-12-10T07:38:13;98467.47;;;9.20;100.00
21960;BME280;11144;43.030;25.108;2022-12-10T07:39:46;98492.47;;;9.31;100.00
21960;BME280;11144;43.030;25.108;2022-12-10T07:41:20;98486.06;;;9.37;100.00
21960;BME280;11144;43.030;25.108;2022-12-10T07:42:53;98486.31;;;9.31;100.00
21960;BME280;11144;43.030;25.108;2022-12-10T07:44:28;98490.63;;;9.33;100.00
21960;BME280;11144;43.030;25.108;2022-12-10T07:46:03;98473.72;;;9.37;100.00
21960;BME280;11144;43.030;25.108;2022-12-10T07:47:37;98469.81;;;9.46;100.00
21960;BME280;11144;43.030;25.108;2022-12-10T07:49:12;98480.59;;;9.60;100.00
21960;BME280;11144;43.030;25.108;2022-12-10T07:50:46;98471.13;;;9.74;100.00
21960;BME280;11144;43.030;25.108;2022-12-10T07:52:20;98472.25;;;9.87;100.00
21960;BME280;11144;43.030;25.108;2022-12-10T07:53:54;98465.69;;;9.96;100.00
21960;BME280;11144;43.030;25.108;2022-12-10T07:55:28;98466.81;;;10.27;100.00
21960;BME280;11144;43.030;25.108;2022-12-10T07:57:01;98466.47;;;10.52;100.00
21960;BME280;11144;43.030;25.108;2022-12-10T07:58:36;98468.69;;;10.78;100.00
21960;BME280;11144;43.030;25.108;2022-12-10T08:00:12;98464.66;;;11.05;100.00
21960;BME280;11144;43.030;25.108;2022-12-10T08:01:46;98460.56;;;11.32;100.00
21960;BME280;11144;43.030;25.108;2022-12-10T08:03:22;98460.00;;;11.58;100.00
21960;BME280;11144;43.030;25.108;2022-12-10T08:04:58;98460.69;;;11.94;100.00
21960;BME280;11144;43.030;25.108;2022-12-10T08:06:32;98464.13;;;12.27;100.00
21960;BME280;11144;43.030;25.108;2022-12-10T08:08:05;98458.75;;;12.58;100.00
21960;BME280;11144;43.030;25.108;2022-12-10T08:09:40;98464.00;;;12.89;100.00
21960;BME280;11144;43.030;25.108;2022-12-10T08:11:14;98444.25;;;13.09;100.00
21960;BME280;11144;43.030;25.108;2022-12-10T08:12:49;98453.88;;;13.39;100.00
21960;BME280;11144;43.030;25.108;2022-12-10T08:14:23;98453.00;;;13.39;100.00
21960;BME280;11144;43.030;25.108;2022-12-10T08:16:02;98449.97;;;13.31;100.00
21960;BME280;11144;43.030;25.108;2022-12-10T08:17:37;98442.84;;;13.17;100.00
21960;BME280;11144;43.030;25.108;2022-12-10T08:19:10;98439.75;;;12.95;100.00
21960;BME280;11144;43.030;25.108;2022-12-10T08:20:52;98436.22;;;12.81;100.00